| time (UTC) | temp F | wind direction | speed MPH | gust MPH | rain 1hr in | rain 24hr in | rain mn in | humidity % | barometer mb |
| 20260508170039 | 67 | 203 | 17.0 | 22.0 | 0.00 | 0.00 | 0.00 | 44 | 1012.3 |
| 20260508164533 | 66 | 181 | 17.0 | 26.0 | 0.00 | 0.00 | 0.00 | 45 | 1012.6 |
| 20260508163031 | 66 | 196 | 21.0 | 27.0 | 0.00 | 0.00 | 0.00 | 45 | 1012.9 |
| 20260508161530 | 65 | 153 | 15.0 | 26.0 | 0.00 | 0.00 | 0.00 | 48 | 1013.1 |
| 20260508160028 | 64 | 184 | 19.0 | 24.0 | 0.00 | 0.00 | 0.00 | 47 | 1013.2 |
| 20260508154520 | 62 | 194 | 15.0 | 23.0 | 0.00 | 0.00 | 0.00 | 50 | 1013.3 |
| 20260508153022 | 62 | 177 | 15.0 | 20.0 | 0.00 | 0.00 | 0.00 | 52 | 1013.5 |
| 20260508151515 | 62 | 177 | 15.0 | 22.0 | 0.00 | 0.00 | 0.00 | 52 | 1013.8 |
| 20260508150014 | 61 | 194 | 14.0 | 21.0 | 0.00 | 0.00 | 0.00 | 54 | 1013.9 |
| 20260508144508 | 59 | 190 | 18.0 | 24.0 | 0.00 | 0.00 | 0.00 | 52 | 1014.1 |
| 20260508143016 | 59 | 194 | 18.0 | 26.0 | 0.00 | 0.00 | 0.00 | 53 | 1014.1 |
| 20260508141502 | 58 | 188 | 19.0 | 24.0 | 0.00 | 0.00 | 0.00 | 53 | 1014.2 |
| 20260508140058 | 57 | 174 | 14.0 | 20.0 | 0.00 | 0.00 | 0.00 | 57 | 1014.1 |
| 20260508134558 | 55 | 183 | 14.0 | 19.0 | 0.00 | 0.00 | 0.00 | 59 | 1014.2 |
| 20260508133102 | 54 | 180 | 12.0 | 17.0 | 0.00 | 0.00 | 0.00 | 63 | 1014.2 |
| 20260508131548 | 52 | 162 | 13.0 | 18.0 | 0.00 | 0.00 | 0.00 | 64 | 1014.3 |
| 20260508130043 | 50 | 175 | 11.0 | 17.0 | 0.00 | 0.00 | 0.00 | 68 | 1014.3 |
| 20260508124543 | 50 | 174 | 11.0 | 17.0 | 0.00 | 0.00 | 0.00 | 66 | 1014.4 |
| 20260508123052 | 51 | 176 | 13.0 | 16.0 | 0.00 | 0.00 | 0.00 | 65 | 1014.3 |
| 20260508121549 | 50 | 166 | 12.0 | 16.0 | 0.00 | 0.00 | 0.00 | 67 | 1014.2 |
| 20260508120033 | 49 | 178 | 10.0 | 13.0 | 0.00 | 0.00 | 0.00 | 69 | 1014.0 |
| 20260508114530 | 48 | 170 | 10.0 | 14.0 | 0.00 | 0.00 | 0.00 | 70 | 1014.0 |
| 20260508113031 | 47 | 167 | 9.0 | 14.0 | 0.00 | 0.00 | 0.00 | 71 | 1014.0 |
| 20260508111527 | 47 | 183 | 8.0 | 12.0 | 0.00 | 0.00 | 0.00 | 72 | 1013.8 |
| 20260508110023 | 46 | 179 | 8.0 | 12.0 | 0.00 | 0.00 | 0.00 | 75 | 1013.5 |
| 20260508104522 | 45 | 164 | 6.0 | 9.0 | 0.00 | 0.00 | 0.00 | 76 | 1013.5 |
| 20260508103019 | 44 | 171 | 7.0 | 8.0 | 0.00 | 0.00 | 0.00 | 77 | 1013.5 |
| 20260508101516 | 44 | 172 | 6.0 | 8.0 | 0.00 | 0.00 | 0.00 | 76 | 1013.5 |
| 20260508100018 | 44 | 175 | 7.0 | 8.0 | 0.00 | 0.00 | 0.00 | 78 | 1013.5 |
| 20260508094513 | 42 | 174 | 4.0 | 6.0 | 0.00 | 0.00 | 0.00 | 80 | 1013.4 |
| 20260508093020 | 43 | 180 | 5.0 | 7.0 | 0.00 | 0.00 | 0.00 | 80 | 1013.5 |
| 20260508091514 | 43 | 182 | 4.0 | 6.0 | 0.00 | 0.00 | 0.00 | 79 | 1013.6 |
| 20260508090009 | 43 | 180 | 5.0 | 7.0 | 0.00 | 0.00 | 0.00 | 79 | 1013.5 |
| 20260508084508 | 43 | 185 | 5.0 | 7.0 | 0.00 | 0.00 | 0.00 | 78 | 1013.5 |
| 20260508083005 | 44 | 185 | 5.0 | 8.0 | 0.00 | 0.00 | 0.00 | 77 | 1013.4 |
| 20260508081502 | 44 | 186 | 7.0 | 10.0 | 0.00 | 0.00 | 0.00 | 75 | 1013.4 |
| 20260508080100 | 45 | 185 | 6.0 | 10.0 | 0.00 | 0.00 | 0.00 | 74 | 1013.3 |
| 20260508074601 | 45 | 186 | 6.0 | 8.0 | 0.00 | 0.00 | 0.00 | 74 | 1013.3 |
| 20260508073059 | 45 | 179 | 7.0 | 10.0 | 0.00 | 0.00 | 0.00 | 74 | 1013.3 |
| 20260508071559 | 45 | 188 | 7.0 | 10.0 | 0.00 | 0.00 | 0.00 | 74 | 1013.4 |
| 20260508064553 | 46 | 176 | 7.0 | 9.0 | 0.00 | 0.00 | 0.00 | 72 | 1013.6 |
| 20260508063056 | 46 | 179 | 6.0 | 8.0 | 0.00 | 0.00 | 0.00 | 73 | 1013.9 |
| 20260508061553 | 46 | 175 | 6.0 | 9.0 | 0.00 | 0.00 | 0.00 | 72 | 1013.7 |
| 20260508060056 | 45 | 167 | 6.0 | 9.0 | 0.00 | 0.00 | 0.00 | 73 | 1013.7 |
| 20260508054554 | 45 | 165 | 5.0 | 8.0 | 0.00 | 0.00 | 0.00 | 72 | 1013.8 |
| 20260508053055 | 46 | 172 | 7.0 | 9.0 | 0.00 | 0.00 | 0.00 | 71 | 1013.9 |
| 20260508051547 | 45 | 163 | 6.0 | 7.0 | 0.00 | 0.00 | 0.00 | 74 | 1013.9 |
| 20260508050045 | 45 | 160 | 4.0 | 8.0 | 0.00 | 0.00 | 0.00 | 74 | 1014.0 |
| 20260508044600 | 45 | 157 | 5.0 | 7.0 | 0.00 | 0.00 | 0.00 | 75 | 1013.8 |
| 20260508043045 | 45 | 153 | 4.0 | 7.0 | 0.00 | 0.00 | 0.00 | 74 | 1013.9 |
| 20260508041540 | 45 | 161 | 3.0 | 5.0 | 0.00 | 0.00 | 0.00 | 74 | 1014.0 |
| 20260508040036 | 45 | 165 | 5.0 | 7.0 | 0.00 | 0.00 | 0.00 | 76 | 1014.0 |
| 20260508034543 | 44 | 240 | 3.0 | 4.0 | 0.00 | 0.00 | 0.00 | 77 | 1013.9 |
| 20260508033034 | 44 | 240 | 3.0 | 4.0 | 0.00 | 0.00 | 0.00 | 77 | 1013.8 |
| 20260508031534 | 44 | 240 | 2.0 | 3.0 | 0.00 | 0.00 | 0.00 | 79 | 1013.9 |
| 20260508030042 | 44 | 240 | 1.0 | 3.0 | 0.00 | 0.00 | 0.00 | 78 | 1013.7 |
| 20260508024540 | 45 | 240 | 1.0 | 3.0 | 0.00 | 0.00 | 0.00 | 76 | 1013.8 |
| 20260508023033 | 47 | 240 | 2.0 | 3.0 | 0.00 | 0.00 | 0.00 | 78 | 1013.9 |
| 20260508021531 | 47 | 240 | 2.0 | 3.0 | 0.00 | 0.00 | 0.00 | 75 | 1013.9 |
| 20260508020031 | 48 | 240 | 2.0 | 3.0 | 0.00 | 0.00 | 0.00 | 74 | 1013.9 |
| 20260508014531 | 49 | 240 | 2.0 | 3.0 | 0.00 | 0.00 | 0.00 | 72 | 1013.9 |
| 20260508013030 | 49 | 240 | 1.0 | 3.0 | 0.00 | 0.00 | 0.00 | 71 | 1013.9 |
| 20260508011540 | 49 | 240 | 1.0 | 3.0 | 0.00 | 0.00 | 0.00 | 69 | 1013.7 |
| 20260508010030 | 50 | 240 | 1.0 | 3.0 | 0.00 | 0.00 | 0.00 | 65 | 1013.6 |
| 20260508004531 | 53 | 240 | 2.0 | 4.0 | 0.00 | 0.00 | 0.00 | 54 | 1013.5 |
| 20260508003028 | 54 | 265 | 2.0 | 6.0 | 0.00 | 0.00 | 0.00 | 46 | 1013.5 |
| 20260508001527 | 55 | 250 | 3.0 | 5.0 | 0.00 | 0.00 | 0.00 | 47 | 1013.3 |
| 20260508000025 | 56 | 251 | 2.0 | 4.0 | 0.00 | 0.00 | 0.00 | 43 | 1013.2 |
| 20260507234525 | 56 | 231 | 3.0 | 10.0 | 0.00 | 0.00 | 0.00 | 44 | 1013.0 |
| 20260507233030 | 57 | 258 | 3.0 | 9.0 | 0.00 | 0.00 | 0.00 | 45 | 1013.0 |
| 20260507231534 | 57 | 234 | 4.0 | 9.0 | 0.00 | 0.00 | 0.00 | 43 | 1013.1 |
| 20260507230022 | 57 | 265 | 8.0 | 14.0 | 0.00 | 0.00 | 0.00 | 44 | 1013.1 |
| 20260507224523 | 57 | 266 | 7.0 | 14.0 | 0.00 | 0.00 | 0.00 | 44 | 1013.0 |
| 20260507223020 | 57 | 271 | 9.0 | 14.0 | 0.00 | 0.00 | 0.00 | 42 | 1013.2 |
| 20260507221519 | 57 | 244 | 9.0 | 18.0 | 0.00 | 0.00 | 0.00 | 46 | 1013.2 |
| 20260507220022 | 57 | 275 | 11.0 | 19.0 | 0.00 | 0.00 | 0.00 | 45 | 1013.3 |
| 20260507214517 | 58 | 290 | 14.0 | 18.0 | 0.00 | 0.00 | 0.00 | 43 | 1013.1 |
| 20260507213022 | 57 | 288 | 8.0 | 14.0 | 0.00 | 0.00 | 0.00 | 46 | 1013.2 |
| 20260507211514 | 57 | 272 | 12.0 | 17.0 | 0.00 | 0.00 | 0.00 | 43 | 1013.0 |
| 20260507210013 | 57 | 292 | 11.0 | 15.0 | 0.00 | 0.00 | 0.00 | 46 | 1012.9 |
| 20260507204512 | 57 | 269 | 12.0 | 19.0 | 0.00 | 0.00 | 0.00 | 46 | 1012.9 |
| 20260507203111 | 57 | 291 | 8.0 | 19.0 | 0.00 | 0.00 | 0.00 | 43 | 1012.9 |
| 20260507201510 | 57 | 257 | 12.0 | 18.0 | 0.00 | 0.00 | 0.00 | 44 | 1012.9 |
| 20260507200008 | 57 | 244 | 13.0 | 19.0 | 0.00 | 0.00 | 0.00 | 45 | 1013.0 |
| 20260507194511 | 57 | 275 | 13.0 | 17.0 | 0.00 | 0.00 | 0.00 | 45 | 1013.1 |
| 20260507193005 | 57 | 261 | 16.0 | 23.0 | 0.00 | 0.00 | 0.00 | 49 | 1013.0 |
| 20260507191504 | 57 | 261 | 11.0 | 20.0 | 0.00 | 0.00 | 0.00 | 47 | 1013.2 |
| 20260507190004 | 56 | 217 | 6.0 | 24.0 | 0.00 | 0.00 | 0.00 | 45 | 1013.1 |
| 20260507184600 | 56 | 232 | 11.0 | 18.0 | 0.00 | 0.00 | 0.00 | 46 | 1013.3 |
| 20260507183105 | 56 | 230 | 11.0 | 17.0 | 0.00 | 0.00 | 0.00 | 50 | 1013.2 |
| 20260507181554 | 55 | 252 | 8.0 | 17.0 | 0.00 | 0.00 | 0.00 | 51 | 1013.4 |
| 20260507180053 | 55 | 223 | 11.0 | 20.0 | 0.00 | 0.00 | 0.00 | 48 | 1013.5 |
| 20260507174603 | 54 | 255 | 8.0 | 17.0 | 0.00 | 0.00 | 0.00 | 48 | 1013.7 |
| 20260507173057 | 54 | 232 | 11.0 | 21.0 | 0.00 | 0.00 | 0.00 | 50 | 1013.9 |
| 20260507171605 | 54 | 219 | 9.0 | 20.0 | 0.00 | 0.00 | 0.00 | 51 | 1014.0 |